createdAt,value
2018-05-15T00:01:59.317Z,46.00
2018-05-15T00:04:25.484Z,46.40
2018-05-15T00:06:51.737Z,46.20
2018-05-15T00:09:18.648Z,48.00
2018-05-15T00:11:44.834Z,47.20
2018-05-15T00:14:11.836Z,47.10
2018-05-15T00:16:38.010Z,47.40
2018-05-15T00:19:04.210Z,45.80
2018-05-15T00:21:31.124Z,47.20
2018-05-15T00:23:57.254Z,47.30
2018-05-15T00:26:23.456Z,46.90
2018-05-15T00:28:49.655Z,45.20
2018-05-15T00:31:16.552Z,47.40
2018-05-15T00:33:42.730Z,47.40
2018-05-15T00:36:08.903Z,45.00
2018-05-15T00:38:35.100Z,46.40
2018-05-15T00:41:01.319Z,46.70
2018-05-15T00:43:27.454Z,48.00
2018-05-15T00:45:53.616Z,47.50
2018-05-15T00:48:19.799Z,47.60
2018-05-15T00:50:45.926Z,48.20
2018-05-15T00:53:12.134Z,49.10
2018-05-15T00:55:44.010Z,50.30
2018-05-15T00:58:10.963Z,49.80
2018-05-15T01:00:37.153Z,49.90
2018-05-15T01:03:03.369Z,49.70
2018-05-15T01:05:29.544Z,48.50
2018-05-15T01:07:56.449Z,49.80
2018-05-15T01:10:22.677Z,49.80
2018-05-15T01:12:48.900Z,49.50
2018-05-15T01:15:15.088Z,49.60
2018-05-15T01:17:41.324Z,50.60
2018-05-15T01:20:07.487Z,51.00
2018-05-15T01:22:33.636Z,50.20
2018-05-15T01:24:59.797Z,51.20
2018-05-15T01:27:25.961Z,52.10
2018-05-15T01:29:52.116Z,51.80
2018-05-15T01:32:18.294Z,52.00
2018-05-15T01:34:44.487Z,52.20
2018-05-15T01:37:11.422Z,51.70
2018-05-15T01:39:38.329Z,52.10
2018-05-15T01:42:04.524Z,52.00
2018-05-15T01:44:30.737Z,52.10
2018-05-15T01:46:57.663Z,51.70
2018-05-15T01:49:23.805Z,51.70
2018-05-15T01:51:50.748Z,51.60
2018-05-15T01:54:17.723Z,51.40
2018-05-15T01:56:43.875Z,51.30
2018-05-15T01:59:10.051Z,52.10
2018-05-15T02:01:36.970Z,52.10
2018-05-15T02:04:03.106Z,52.10
2018-05-15T02:06:29.277Z,52.00
2018-05-15T02:08:55.446Z,52.20
2018-05-15T02:11:21.617Z,52.20
2018-05-15T02:13:47.773Z,52.40
2018-05-15T02:16:13.972Z,51.40
2018-05-15T02:18:40.899Z,51.50
2018-05-15T02:21:07.085Z,51.50
2018-05-15T02:23:33.248Z,51.50
2018-05-15T02:25:59.457Z,51.50
2018-05-15T02:28:25.673Z,51.50
2018-05-15T02:30:51.826Z,51.50
2018-05-15T02:33:18.038Z,51.50
2018-05-15T02:35:44.169Z,52.00
2018-05-15T02:38:10.404Z,51.40
2018-05-15T02:40:36.585Z,51.40
2018-05-15T02:43:02.737Z,52.50
2018-05-15T02:45:28.913Z,51.80
2018-05-15T02:47:55.811Z,52.60
2018-05-15T02:50:21.995Z,52.60
2018-05-15T02:52:48.885Z,52.60
2018-05-15T02:55:15.075Z,52.70
2018-05-15T02:57:41.235Z,53.00
2018-05-15T03:00:07.380Z,53.60
2018-05-15T03:02:33.556Z,53.10
2018-05-15T03:04:59.747Z,54.00
2018-05-15T03:07:25.877Z,53.70
2018-05-15T03:09:52.112Z,54.40
2018-05-15T03:12:18.303Z,54.40
2018-05-15T03:14:44.525Z,55.00
2018-05-15T03:17:10.810Z,54.40
2018-05-15T03:19:37.718Z,55.20
2018-05-15T03:22:03.905Z,55.20
2018-05-15T03:24:30.118Z,55.60
2018-05-15T03:26:57.065Z,56.00
2018-05-15T03:29:23.958Z,55.70
2018-05-15T03:31:50.155Z,55.70
2018-05-15T03:34:16.334Z,55.00
2018-05-15T03:36:42.574Z,55.50
2018-05-15T03:39:09.473Z,56.10
2018-05-15T03:41:35.665Z,56.20
2018-05-15T03:44:02.569Z,55.50
2018-05-15T03:46:28.769Z,55.50
2018-05-15T03:48:54.926Z,55.30
2018-05-15T03:51:21.147Z,56.60
2018-05-15T03:53:47.313Z,56.00
2018-05-15T03:56:14.287Z,56.70
2018-05-15T03:58:40.754Z,55.90
2018-05-15T04:01:19.319Z,55.00
2018-05-15T04:03:57.613Z,55.10
2018-05-15T04:06:35.969Z,56.30
2018-05-15T04:09:02.239Z,55.30
2018-05-15T04:11:29.350Z,55.20
2018-05-15T04:13:55.554Z,53.80
2018-05-15T04:16:22.498Z,55.00
2018-05-15T04:18:49.446Z,54.80
2018-05-15T04:21:16.368Z,55.20
2018-05-15T04:23:42.594Z,55.10
2018-05-15T04:26:08.785Z,54.90
2018-05-15T04:28:34.965Z,54.60
2018-05-15T04:31:01.170Z,54.40
2018-05-15T04:33:27.305Z,55.00
2018-05-15T04:35:53.527Z,55.50
2018-05-15T04:38:19.707Z,55.40
2018-05-15T04:40:45.890Z,56.00
2018-05-15T04:43:12.095Z,55.70
2018-05-15T04:45:38.301Z,56.20
2018-05-15T04:48:04.548Z,55.30
2018-05-15T04:50:30.700Z,55.20
2018-05-15T04:52:56.896Z,55.60
2018-05-15T04:55:23.107Z,56.00
2018-05-15T04:57:49.275Z,56.30
2018-05-15T05:00:15.477Z,55.30
2018-05-15T05:02:41.684Z,56.20
2018-05-15T05:05:08.646Z,55.80
2018-05-15T05:07:35.366Z,55.90
2018-05-15T05:10:01.565Z,56.50
2018-05-15T05:12:27.770Z,55.50
2018-05-15T05:14:53.976Z,56.30
2018-05-15T05:17:20.187Z,55.50
2018-05-15T05:19:47.098Z,57.20
2018-05-15T05:22:13.306Z,57.00
2018-05-15T05:24:39.510Z,56.30
2018-05-15T05:27:05.756Z,56.30
2018-05-15T05:29:32.655Z,56.70
2018-05-15T05:31:59.624Z,56.90
2018-05-15T05:34:26.577Z,56.90
2018-05-15T05:36:52.772Z,57.50
2018-05-15T05:39:19.668Z,58.10
2018-05-15T05:41:45.848Z,58.10
2018-05-15T05:44:12.783Z,58.80
2018-05-15T05:46:39.728Z,58.90
2018-05-15T05:49:05.936Z,58.20
2018-05-15T05:51:32.137Z,57.20
2018-05-15T05:53:58.303Z,57.40
2018-05-15T05:56:24.535Z,58.00
2018-05-15T05:58:50.688Z,57.50
2018-05-15T06:01:18.293Z,56.50
2018-05-15T06:03:44.455Z,56.50
2018-05-15T06:06:10.678Z,55.70
2018-05-15T06:08:36.937Z,56.40
2018-05-15T06:11:06.743Z,54.70
2018-05-15T06:13:33.724Z,57.10
2018-05-15T06:15:59.912Z,57.10
2018-05-15T06:18:26.844Z,57.60
2018-05-15T06:20:53.015Z,57.50
2018-05-15T06:23:19.225Z,57.70
2018-05-15T06:25:46.166Z,57.70
2018-05-15T06:28:13.104Z,59.10
2018-05-15T06:30:40.106Z,57.90
2018-05-15T06:33:06.275Z,57.90
2018-05-15T06:35:33.189Z,57.50
2018-05-15T06:37:59.413Z,57.40
2018-05-15T06:40:25.641Z,57.20
2018-05-15T06:42:51.861Z,55.40
2018-05-15T06:45:18.037Z,53.40
2018-05-15T06:47:44.949Z,51.30
2018-05-15T06:50:11.171Z,51.30
2018-05-15T06:52:37.417Z,53.00
2018-05-15T06:55:03.593Z,50.10
2018-05-15T06:57:29.877Z,52.60
2018-05-15T06:59:56.099Z,49.40
2018-05-15T07:02:22.332Z,50.30
2018-05-15T07:04:48.505Z,50.10
2018-05-15T07:07:14.706Z,48.90
2018-05-15T07:09:42.467Z,47.90
2018-05-15T07:12:08.671Z,46.90
2018-05-15T07:14:34.901Z,48.00
2018-05-15T07:17:03.292Z,48.20
2018-05-15T07:19:29.602Z,47.00
2018-05-15T07:21:55.766Z,46.80
2018-05-15T07:24:22.742Z,45.10
2018-05-15T07:26:48.956Z,45.00
2018-05-15T07:29:15.886Z,46.50
2018-05-15T07:31:42.826Z,46.50
2018-05-15T07:34:09.012Z,46.40
2018-05-15T07:36:35.230Z,46.70
2018-05-15T07:39:01.512Z,46.20
2018-05-15T07:41:28.462Z,46.50
2018-05-15T07:43:54.688Z,46.00
2018-05-15T07:46:21.799Z,44.10
2018-05-15T07:48:48.008Z,44.50
2018-05-15T07:51:14.194Z,46.80
2018-05-15T07:53:40.531Z,46.10
2018-05-15T07:56:06.654Z,45.90
2018-05-15T07:58:32.821Z,44.40
2018-05-15T08:00:58.997Z,44.40
2018-05-15T08:13:10.215Z,42.50
2018-05-15T08:15:36.424Z,40.30
2018-05-15T08:18:02.636Z,43.40
2018-05-15T08:20:29.603Z,39.20
2018-05-15T08:22:55.777Z,39.30
2018-05-15T08:25:21.954Z,41.70
2018-05-15T08:27:48.995Z,37.30
2018-05-15T08:30:15.204Z,38.10
2018-05-15T08:32:42.180Z,39.10
2018-05-15T08:35:08.338Z,39.20
2018-05-15T08:37:34.647Z,35.90
2018-05-15T08:40:00.736Z,38.70
2018-05-15T08:42:27.676Z,38.40
2018-05-15T08:44:54.625Z,37.50
2018-05-15T08:47:21.601Z,40.50
2018-05-15T08:49:47.906Z,40.30
2018-05-15T08:52:14.906Z,35.00
2018-05-15T08:54:41.125Z,35.00
2018-05-15T08:57:07.321Z,36.00
2018-05-15T08:59:34.866Z,36.60
2018-05-15T09:02:01.800Z,36.20
2018-05-15T09:04:28.097Z,36.10
2018-05-15T09:06:54.301Z,36.70
2018-05-15T09:09:20.610Z,36.90
2018-05-15T09:11:46.751Z,37.10
2018-05-15T09:14:12.957Z,37.30
2018-05-15T09:16:39.899Z,36.00
2018-05-15T09:19:06.893Z,37.60
2018-05-15T09:21:33.080Z,36.90
2018-05-15T09:24:00.057Z,33.70
2018-05-15T09:26:26.275Z,33.40
2018-05-15T09:28:53.028Z,33.30
2018-05-15T09:31:20.123Z,35.10
2018-05-15T09:33:46.349Z,35.30
2018-05-15T09:36:12.583Z,35.40
2018-05-15T09:38:38.829Z,34.10
2018-05-15T09:41:05.824Z,31.40
2018-05-15T09:46:28.277Z,30.80
2018-05-15T09:48:54.555Z,34.30
2018-05-15T09:51:21.641Z,32.60
2018-05-15T09:53:47.911Z,34.70
2018-05-15T09:56:14.094Z,31.70
2018-05-15T09:58:41.011Z,31.60
2018-05-15T10:01:07.286Z,31.50
2018-05-15T10:03:33.553Z,31.10
2018-05-15T10:05:59.746Z,31.90
2018-05-15T10:08:25.926Z,31.00
2018-05-15T10:10:52.203Z,33.10
2018-05-15T10:13:18.568Z,33.50
2018-05-15T10:15:44.807Z,32.60
2018-05-15T10:18:11.011Z,32.70
2018-05-15T10:20:37.242Z,32.50
2018-05-15T10:23:04.002Z,30.70
2018-05-15T10:25:30.185Z,29.40
2018-05-15T10:27:56.334Z,31.10
2018-05-15T10:30:22.605Z,30.20
2018-05-15T10:32:48.906Z,32.50
2018-05-15T10:35:15.283Z,31.20
2018-05-15T10:37:42.346Z,30.10
2018-05-15T10:40:09.875Z,30.70
2018-05-15T10:42:36.836Z,31.90
2018-05-15T10:45:03.802Z,29.00
2018-05-15T10:47:30.020Z,28.90
2018-05-15T10:49:56.961Z,29.60
2018-05-15T10:52:24.072Z,31.80
2018-05-15T10:54:50.268Z,31.70
2018-05-15T10:57:16.489Z,29.70
2018-05-15T10:59:42.759Z,28.90
2018-05-15T11:02:09.726Z,29.50
2018-05-15T11:04:36.073Z,29.50
2018-05-15T11:07:03.178Z,30.50
2018-05-15T11:09:29.499Z,30.50
2018-05-15T11:11:55.666Z,28.70
2018-05-15T11:14:25.090Z,29.00
2018-05-15T11:16:53.014Z,30.20
2018-05-15T11:19:31.373Z,30.20
2018-05-15T11:22:11.223Z,29.30
2018-05-15T11:24:49.441Z,32.00
2018-05-15T11:27:16.560Z,32.10
2018-05-15T11:29:43.608Z,29.20
2018-05-15T11:32:09.811Z,30.50
2018-05-15T11:34:36.003Z,27.90
2018-05-15T11:37:02.294Z,29.00
2018-05-15T11:39:30.237Z,31.30
2018-05-15T11:41:56.524Z,30.50
2018-05-15T11:44:22.651Z,32.00
2018-05-15T11:46:49.656Z,29.20
2018-05-15T11:49:16.567Z,29.20
2018-05-15T11:51:42.809Z,30.70
2018-05-15T11:54:08.356Z,31.30
2018-05-15T11:56:34.669Z,30.20
2018-05-15T11:59:03.740Z,31.30
2018-05-15T12:01:30.191Z,31.40
2018-05-15T12:03:56.531Z,30.90
2018-05-15T12:06:24.151Z,30.50
2018-05-15T12:08:50.419Z,32.50
2018-05-15T12:11:16.637Z,30.90
2018-05-15T12:13:42.835Z,33.40
2018-05-15T12:16:09.148Z,34.30
2018-05-15T12:18:36.368Z,34.30
2018-05-15T12:21:02.621Z,34.40
2018-05-15T12:23:29.525Z,36.80
2018-05-15T12:25:55.704Z,36.90
2018-05-15T12:28:22.624Z,32.10
2018-05-15T12:30:49.790Z,32.40
2018-05-15T12:33:16.878Z,35.10
2018-05-15T12:35:43.112Z,34.20
2018-05-15T12:38:10.026Z,33.70
2018-05-15T12:40:36.990Z,35.80
2018-05-15T12:43:03.180Z,35.70
2018-05-15T12:45:29.369Z,35.40
2018-05-15T12:47:55.597Z,35.40
2018-05-15T12:50:21.762Z,35.50
2018-05-15T12:52:47.944Z,36.00
2018-05-15T12:55:14.146Z,34.60
2018-05-15T12:57:41.058Z,35.90
2018-05-15T13:00:08.024Z,35.90
2018-05-15T13:02:35.046Z,36.70
2018-05-15T13:05:01.273Z,32.60
2018-05-15T13:07:27.514Z,32.60
2018-05-15T13:09:55.841Z,34.40
2018-05-15T13:12:23.195Z,33.20
2018-05-15T13:14:49.384Z,33.30
2018-05-15T13:17:16.355Z,33.30
2018-05-15T13:19:42.603Z,34.10
2018-05-15T13:22:08.798Z,34.10
2018-05-15T13:24:35.814Z,33.80
2018-05-15T13:27:02.242Z,32.50
2018-05-15T13:29:28.420Z,32.00
2018-05-15T13:31:55.445Z,32.50
2018-05-15T13:34:22.380Z,32.80
2018-05-15T13:36:48.572Z,33.10
2018-05-15T13:39:14.774Z,33.10
2018-05-15T13:41:40.966Z,33.10
2018-05-15T13:44:07.135Z,32.30
2018-05-15T13:46:33.316Z,32.30
2018-05-15T13:48:59.594Z,31.90
2018-05-15T13:51:25.768Z,36.40
2018-05-15T13:56:42.142Z,32.70
2018-05-15T13:59:08.324Z,35.90
2018-05-15T14:01:34.508Z,33.60
2018-05-15T14:04:00.664Z,35.10
2018-05-15T14:06:27.448Z,34.70
2018-05-15T14:08:54.360Z,34.00
2018-05-15T14:11:20.600Z,34.00
2018-05-15T14:13:46.858Z,33.80
2018-05-15T14:16:13.038Z,34.30
2018-05-15T14:18:39.217Z,34.60
2018-05-15T14:21:05.447Z,35.30
2018-05-15T14:23:32.089Z,33.20
2018-05-15T14:25:58.354Z,33.80
2018-05-15T14:28:24.561Z,34.70
2018-05-15T14:30:50.834Z,34.10
2018-05-15T14:33:17.122Z,33.50
2018-05-15T14:35:43.319Z,34.80
2018-05-15T14:38:10.299Z,34.60
2018-05-15T14:40:36.543Z,34.60
2018-05-15T14:43:15.023Z,36.70
2018-05-15T14:45:41.959Z,35.40
2018-05-15T14:48:08.935Z,35.10
2018-05-15T14:50:47.426Z,35.10
2018-05-15T14:53:14.439Z,36.10
2018-05-15T14:55:40.605Z,36.10
2018-05-15T14:58:07.560Z,36.10
2018-05-15T15:00:34.118Z,36.10
2018-05-15T15:03:00.361Z,35.80
2018-05-15T15:05:26.684Z,37.50
2018-05-15T15:07:52.909Z,36.20
2018-05-15T15:10:19.161Z,36.70
2018-05-15T15:12:45.331Z,36.70
2018-05-15T15:15:12.297Z,37.20
2018-05-15T15:17:38.732Z,37.20
2018-05-15T15:20:04.975Z,37.70
2018-05-15T15:22:31.188Z,37.70
2018-05-15T15:24:57.433Z,38.60
2018-05-15T15:27:23.659Z,38.80
2018-05-15T15:29:49.876Z,39.60
2018-05-15T15:32:16.070Z,40.20
2018-05-15T15:34:43.002Z,40.10
2018-05-15T15:37:09.209Z,40.10
2018-05-15T15:39:35.386Z,37.70
2018-05-15T15:42:02.394Z,38.90
2018-05-15T15:44:28.574Z,38.80
2018-05-15T15:46:54.806Z,38.50
2018-05-15T15:49:21.963Z,39.80
2018-05-15T15:51:48.212Z,40.00
2018-05-15T15:54:15.291Z,38.20
2018-05-15T15:56:41.569Z,39.80
2018-05-15T15:59:07.770Z,39.80
2018-05-15T16:01:34.703Z,38.10
2018-05-15T16:04:01.698Z,38.40
2018-05-15T16:06:28.050Z,37.60
2018-05-15T16:08:54.255Z,38.10
2018-05-15T16:11:20.518Z,37.20
2018-05-15T16:13:46.745Z,38.30
2018-05-15T16:16:14.141Z,38.70
2018-05-15T16:18:41.142Z,38.10
2018-05-15T16:21:07.327Z,38.10
2018-05-15T16:23:33.571Z,39.80
2018-05-15T16:25:59.820Z,36.70
2018-05-15T16:28:26.009Z,38.80
2018-05-15T16:30:52.957Z,36.20
2018-05-15T16:33:19.888Z,36.60
2018-05-15T16:35:47.627Z,38.90
2018-05-15T16:38:13.833Z,38.80
2018-05-15T16:40:40.225Z,38.50
2018-05-15T16:43:06.498Z,38.30
2018-05-15T16:45:32.783Z,38.80
2018-05-15T16:47:59.742Z,39.70
2018-05-15T16:50:26.923Z,37.30
2018-05-15T16:52:53.391Z,37.90
2018-05-15T16:55:19.988Z,38.10
2018-05-15T16:57:46.559Z,39.00
2018-05-15T17:00:13.812Z,39.60
2018-05-15T17:02:39.980Z,39.50
2018-05-15T17:05:06.948Z,41.50
2018-05-15T17:07:33.213Z,41.50
2018-05-15T17:09:59.776Z,44.50
2018-05-15T17:12:26.718Z,45.30
2018-05-15T17:14:53.669Z,45.50
2018-05-15T17:17:20.663Z,45.80
2018-05-15T17:19:47.986Z,45.70
2018-05-15T17:22:14.192Z,45.50
2018-05-15T17:27:30.786Z,46.10
2018-05-15T17:29:57.051Z,45.90
2018-05-15T17:32:23.997Z,46.10
2018-05-15T17:34:50.968Z,47.60
2018-05-15T17:37:17.295Z,47.60
2018-05-15T17:39:43.546Z,47.40
2018-05-15T17:42:10.654Z,46.00
2018-05-15T17:44:37.640Z,45.30
2018-05-15T17:47:05.968Z,45.20
2018-05-15T17:49:35.128Z,44.80
2018-05-15T17:52:05.644Z,44.20
2018-05-15T17:54:31.897Z,44.00
2018-05-15T17:56:58.116Z,45.10
2018-05-15T17:59:24.413Z,44.60
2018-05-15T18:01:53.172Z,44.50
2018-05-15T18:04:20.251Z,44.90
2018-05-15T18:06:46.856Z,44.90
2018-05-15T18:09:18.338Z,45.10
2018-05-15T18:11:45.110Z,45.00
2018-05-15T18:14:11.647Z,44.00
2018-05-15T18:16:38.060Z,44.10
2018-05-15T18:19:04.324Z,44.00
2018-05-15T18:21:33.001Z,43.90
2018-05-15T18:24:01.217Z,44.40
2018-05-15T18:26:30.303Z,44.00
2018-05-15T18:28:59.643Z,43.10
2018-05-15T18:31:26.411Z,42.20
2018-05-15T18:33:53.892Z,43.70
2018-05-15T18:36:20.159Z,43.10
2018-05-15T18:38:47.167Z,44.80
2018-05-15T18:41:13.629Z,44.80
2018-05-15T18:43:41.055Z,45.30
2018-05-15T18:46:08.790Z,45.80
2018-05-15T18:48:35.215Z,46.90
2018-05-15T18:51:02.612Z,47.30
2018-05-15T18:53:28.866Z,48.10
2018-05-15T18:56:06.224Z,49.00
2018-05-15T18:58:32.437Z,49.40
2018-05-15T19:00:58.892Z,50.40
2018-05-15T19:03:25.362Z,51.10
2018-05-15T19:05:52.726Z,51.90
2018-05-15T19:18:08.215Z,53.30
2018-05-15T19:20:34.734Z,53.20
2018-05-15T19:23:02.454Z,54.30
2018-05-15T19:25:31.483Z,54.90
2018-05-15T19:27:58.115Z,55.60
2018-05-15T19:30:26.355Z,56.30
2018-05-15T19:32:59.181Z,56.30
2018-05-15T19:35:29.540Z,56.60
2018-05-15T19:37:56.068Z,56.50
2018-05-15T19:40:41.172Z,56.50
2018-05-15T19:43:08.662Z,56.20
2018-05-15T19:45:36.165Z,56.80
2018-05-15T19:48:03.158Z,56.70
2018-05-15T19:50:30.174Z,57.10
2018-05-15T19:52:56.604Z,57.00
2018-05-15T19:55:23.857Z,56.90
2018-05-15T19:57:50.139Z,56.90
2018-05-15T20:00:16.416Z,56.80
2018-05-15T20:02:43.809Z,56.60
2018-05-15T20:05:10.802Z,56.80
2018-05-15T20:07:37.031Z,56.70
2018-05-15T20:10:04.142Z,55.50
2018-05-15T20:12:31.169Z,55.10
2018-05-15T20:14:57.485Z,55.10
2018-05-15T20:17:23.886Z,55.30
2018-05-15T20:19:50.068Z,55.90
2018-05-15T20:22:16.353Z,56.70
2018-05-15T20:24:42.644Z,56.30
2018-05-15T20:27:09.570Z,56.00
2018-05-15T20:29:36.554Z,56.00
2018-05-15T20:32:02.769Z,56.70
2018-05-15T20:34:29.689Z,57.50
2018-05-15T20:36:56.291Z,57.50
2018-05-15T20:39:22.868Z,56.70
2018-05-15T20:41:49.095Z,56.70
2018-05-15T20:44:15.267Z,56.70
2018-05-15T20:46:41.488Z,56.10
2018-05-15T20:49:08.302Z,56.00
2018-05-15T20:51:34.516Z,56.00
2018-05-15T20:54:01.761Z,55.80
2018-05-15T20:56:28.818Z,55.70
2018-05-15T20:58:55.442Z,56.10
2018-05-15T21:01:21.628Z,56.40
2018-05-15T21:03:47.847Z,56.50
2018-05-15T21:06:16.921Z,56.60
2018-05-15T21:08:43.117Z,56.60
2018-05-15T21:11:09.306Z,56.40
2018-05-15T21:13:35.933Z,57.80
2018-05-15T21:16:02.288Z,58.50
2018-05-15T21:18:28.510Z,58.50
2018-05-15T21:20:54.772Z,58.30
2018-05-15T21:23:20.956Z,58.10
2018-05-15T21:25:47.920Z,58.10
2018-05-15T21:28:14.118Z,58.10
2018-05-15T21:30:41.159Z,58.00
2018-05-15T21:33:08.124Z,58.20
2018-05-15T21:35:34.514Z,58.10
2018-05-15T21:38:00.710Z,57.90
2018-05-15T21:40:26.914Z,58.20
2018-05-15T21:42:53.140Z,58.00
2018-05-15T21:45:19.370Z,58.30
2018-05-15T21:57:35.681Z,59.00
2018-05-15T22:00:02.572Z,59.80
2018-05-15T22:02:29.525Z,59.60
2018-05-15T22:04:57.444Z,59.80
2018-05-15T22:07:23.994Z,59.80
2018-05-15T22:09:50.200Z,59.80
2018-05-15T22:12:28.784Z,59.60
2018-05-15T22:15:07.219Z,59.80
2018-05-15T22:17:45.750Z,59.70
2018-05-15T22:20:24.333Z,60.00
2018-05-15T22:22:50.363Z,60.00
2018-05-15T22:25:16.550Z,59.60
2018-05-15T22:27:43.325Z,59.50
2018-05-15T22:30:09.584Z,59.60
2018-05-15T22:32:35.806Z,59.60
2018-05-15T22:35:01.996Z,59.60
2018-05-15T22:37:28.992Z,59.30
2018-05-15T22:39:55.181Z,59.20
2018-05-15T22:42:24.154Z,59.20
2018-05-15T22:44:51.168Z,59.20
2018-05-15T22:47:17.345Z,59.10
2018-05-15T22:49:44.334Z,59.00
2018-05-15T22:52:11.351Z,59.00
2018-05-15T22:54:39.262Z,59.30
2018-05-15T22:57:05.428Z,59.30
2018-05-15T22:59:32.406Z,60.50
2018-05-15T23:01:58.563Z,60.40
2018-05-15T23:04:26.605Z,59.80
2018-05-15T23:06:52.748Z,60.10
2018-05-15T23:09:18.955Z,59.80
2018-05-15T23:11:45.195Z,59.80
2018-05-15T23:14:11.417Z,59.90
2018-05-15T23:16:37.680Z,60.20
2018-05-15T23:21:53.943Z,60.10
2018-05-15T23:24:20.887Z,61.40
2018-05-15T23:26:48.613Z,61.90
2018-05-15T23:29:15.637Z,61.70
2018-05-15T23:31:41.901Z,61.60
2018-05-15T23:43:53.108Z,62.40
2018-05-15T23:46:19.314Z,63.10
2018-05-15T23:48:46.215Z,64.00
2018-05-15T23:51:12.436Z,64.10
2018-05-15T23:53:38.636Z,64.00
2018-05-15T23:56:05.623Z,64.10
